Time;durP1;ratioP1;P1;durP2;ratioP2;P2;SDS_P1;SDS_P2;PMS_P1;PMS_P2;Temp;Humidity;BMP_temperature;BMP_pressure;BME280_temperature;BME280_humidity;BME280_pressure;Samples;Min_cycle;Max_cycle;Signal;HPM_P1;HPM_P2
2022/05/25 00:00:05;;;;;;;2.42;1.92;;;;;;;13.89;56.44;100618.13;682146;29;1231;-79
2022/05/25 00:00:30;;;;;;;4.50;2.20;;;;;;;13.82;56.34;100605.81;687332;28;1912;-80
2022/05/25 00:00:55;;;;;;;4.45;2.20;;;;;;;13.85;56.36;100606.72;690735;28;1280;-80
2022/05/25 00:01:16;;;;;;;3.03;2.17;;;;;;;13.83;56.48;100607.59;687909;28;1133;-81
2022/05/25 00:01:37;;;;;;;2.60;2.13;;;;;;;13.81;56.36;100610.19;687954;28;1194;-80
2022/05/25 00:01:58;;;;;;;2.63;2.05;;;;;;;13.83;56.18;100612.84;690493;28;1270;-80
2022/05/25 00:02:19;;;;;;;2.28;2.00;;;;;;;13.84;56.29;100619.84;688806;28;1418;-80
2022/05/25 00:02:40;;;;;;;4.03;2.05;;;;;;;13.82;56.11;100608.44;690658;28;1222;-80
2022/05/25 00:03:00;;;;;;;3.92;2.00;;;;;;;13.85;56.05;100618.97;687416;28;1247;-79
2022/05/25 00:03:21;;;;;;;3.90;1.88;;;;;;;13.87;56.12;100619.88;687931;28;1017;-80
2022/05/25 00:03:42;;;;;;;3.63;2.07;;;;;;;13.82;56.18;100605.81;690105;28;1196;-80
2022/05/25 00:04:05;;;;;;;3.60;2.10;;;;;;;13.77;56.39;100602.28;696013;28;1270;-80
2022/05/25 00:04:26;;;;;;;3.25;2.10;;;;;;;13.83;56.34;100615.47;693245;28;1211;-80
2022/05/25 00:04:47;;;;;;;2.80;1.85;;;;;;;13.76;56.24;100600.53;685393;28;776;-80
2022/05/25 00:05:09;;;;;;;2.90;1.88;;;;;;;13.74;56.32;100602.22;690123;28;1398;-80
2022/05/25 00:05:31;;;;;;;3.00;2.10;;;;;;;13.75;56.25;100609.25;690592;28;1240;-80
2022/05/25 00:05:52;;;;;;;2.38;2.17;;;;;;;13.72;56.44;100599.59;690793;28;799;-80
2022/05/25 00:06:13;;;;;;;2.60;2.20;;;;;;;13.75;56.36;100607.50;688045;28;1352;-80
2022/05/25 00:06:34;;;;;;;3.27;2.10;;;;;;;13.72;56.38;100604.84;687895;28;1195;-81
2022/05/25 00:06:54;;;;;;;3.40;2.10;;;;;;;13.78;56.45;100619.78;690584;28;1057;-80
2022/05/25 00:07:16;;;;;;;3.83;2.55;;;;;;;13.78;56.27;100619.78;687855;28;1302;-80
2022/05/25 00:07:37;;;;;;;3.20;2.70;;;;;;;13.76;56.40;100613.63;690714;28;888;-80
2022/05/25 00:07:58;;;;;;;3.80;2.60;;;;;;;13.75;56.32;100619.75;689859;28;1121;-80
2022/05/25 00:08:19;;;;;;;3.13;2.20;;;;;;;13.71;56.26;100614.44;685284;28;968;-80
2022/05/25 00:08:41;;;;;;;3.92;2.35;;;;;;;13.79;56.49;100626.78;687996;28;1287;-80
2022/05/25 00:09:02;;;;;;;2.97;2.22;;;;;;;13.77;56.32;100629.38;690470;28;1449;-81
2022/05/25 00:09:23;;;;;;;2.72;2.10;;;;;;;13.66;56.38;100605.63;685237;28;1658;-80
2022/05/25 00:09:44;;;;;;;2.67;2.00;;;;;;;13.66;56.59;100605.63;687500;28;1115;-80
2022/05/25 00:10:06;;;;;;;3.10;2.28;;;;;;;13.76;56.50;100622.38;685254;28;1076;-81
2022/05/25 00:10:26;;;;;;;3.30;2.30;;;;;;;13.68;56.67;100619.66;690667;28;780;-81
2022/05/25 00:10:47;;;;;;;2.63;2.43;;;;;;;13.68;56.36;100614.41;693404;28;1246;-80
2022/05/25 00:11:09;;;;;;;2.60;2.40;;;;;;;13.70;56.40;100614.41;690482;28;1123;-79
2022/05/25 00:11:30;;;;;;;2.40;2.20;;;;;;;13.70;56.51;100612.69;690564;28;1280;-79
2022/05/25 00:11:51;;;;;;;2.17;1.97;;;;;;;13.67;56.62;100611.75;687595;28;1216;-79
2022/05/25 00:12:13;;;;;;;4.10;1.88;;;;;;;13.66;56.49;100607.38;687844;28;1059;-80
2022/05/25 00:12:33;;;;;;;4.32;2.00;;;;;;;13.71;56.37;100619.69;690679;28;1112;-80
2022/05/25 00:12:54;;;;;;;4.65;2.00;;;;;;;13.72;56.57;100617.97;690518;28;1432;-80
2022/05/25 00:13:15;;;;;;;3.37;2.00;;;;;;;13.67;56.25;100607.41;685087;28;1173;-81
2022/05/25 00:13:36;;;;;;;3.83;1.95;;;;;;;13.66;56.56;100621.34;690664;28;1404;-80
2022/05/25 00:13:56;;;;;;;3.78;2.10;;;;;;;13.61;56.62;100612.56;690445;28;1250;-80
2022/05/25 00:14:39;;;;;;;3.15;2.30;;;;;;;13.68;56.43;100626.63;690554;28;1196;-80
2022/05/25 00:15:01;;;;;;;2.85;2.53;;;;;;;13.64;56.70;100623.09;682432;28;1654;-81
2022/05/25 00:15:22;;;;;;;2.45;2.25;;;;;;;13.59;56.38;100610.78;687735;28;1208;-80
2022/05/25 00:15:42;;;;;;;2.40;2.20;;;;;;;13.60;56.53;100615.16;685208;28;1302;-80
2022/05/25 00:16:05;;;;;;;2.90;1.90;;;;;;;13.62;56.38;100621.31;682329;29;1337;-79
2022/05/25 00:16:25;;;;;;;3.45;2.03;;;;;;;13.67;56.61;100627.50;690690;28;1081;-80
2022/05/25 00:16:46;;;;;;;3.88;2.10;;;;;;;13.62;56.58;100622.19;686032;28;1166;-80
2022/05/25 00:17:06;;;;;;;5.47;2.38;;;;;;;13.61;56.69;100625.69;690561;28;1134;-80
2022/05/25 00:17:27;;;;;;;4.80;2.28;;;;;;;13.55;56.68;100615.09;682643;28;1308;-80
2022/05/25 00:17:48;;;;;;;4.83;2.40;;;;;;;13.63;56.47;100631.81;680540;29;1164;-80
2022/05/25 00:18:08;;;;;;;4.00;2.20;;;;;;;13.62;56.44;100630.06;687655;28;1220;-80
2022/05/25 00:18:30;;;;;;;4.70;2.20;;;;;;;13.59;56.43;100618.66;687880;28;1219;-80
2022/05/25 00:20:10;;;;;;;5.80;2.60;;;;;;;13.56;56.80;100624.72;680209;28;1045;-80
2022/05/25 00:20:32;;;;;;;6.65;2.55;;;;;;;13.60;56.58;100628.28;683476;28;1958;-80
2022/05/25 00:20:52;;;;;;;5.72;2.60;;;;;;;13.60;56.57;100631.78;685256;28;1052;-80
2022/05/25 00:21:13;;;;;;;4.40;2.22;;;;;;;13.56;56.71;100630.88;685362;28;1159;-81
2022/05/25 00:21:33;;;;;;;3.83;2.50;;;;;;;13.47;56.67;100614.13;685465;28;1295;-80
2022/05/25 00:21:54;;;;;;;3.65;2.42;;;;;;;13.51;56.82;100621.19;690367;28;983;-79
2022/05/25 00:22:15;;;;;;;3.53;2.60;;;;;;;13.56;56.69;100630.88;693369;28;992;-80
2022/05/25 00:22:46;;;;;;;3.90;2.33;;;;;;;13.53;56.83;100641.28;690634;28;1351;-80
2022/05/25 00:23:07;;;;;;;3.90;2.30;;;;;;;13.41;56.90;100623.66;685180;28;1032;-80
2022/05/25 00:23:29;;;;;;;3.20;2.20;;;;;;;13.46;56.95;100617.63;685410;28;1286;-80
2022/05/25 00:23:49;;;;;;;3.33;2.10;;;;;;;13.46;57.03;100625.47;690510;28;1579;-80
2022/05/25 00:24:10;;;;;;;5.20;2.20;;;;;;;13.48;57.04;100629.00;693193;28;1263;-80
2022/05/25 00:24:30;;;;;;;4.70;2.30;;;;;;;13.43;57.10;100624.59;690650;28;1300;-81
2022/05/25 00:24:51;;;;;;;4.03;2.40;;;;;;;13.40;57.12;100629.75;682685;28;1107;-80
2022/05/25 00:25:19;;;;;;;2.70;2.50;;;;;;;13.50;57.24;100635.13;687201;28;1266;-80
2022/05/25 00:25:40;;;;;;;2.50;2.30;;;;;;;13.43;57.17;100624.59;687927;28;1465;-80
2022/05/25 00:26:19;;;;;;;3.53;2.10;;;;;;;13.41;56.90;100615.78;688087;28;1272;-80
2022/05/25 00:26:40;;;;;;;4.88;2.20;;;;;;;13.50;57.14;100638.66;687887;28;1289;-80
2022/05/25 00:27:01;;;;;;;4.28;2.17;;;;;;;13.40;57.17;100627.16;684725;28;1252;-80
2022/05/25 00:27:21;;;;;;;5.22;2.30;;;;;;;13.37;57.49;100629.72;679885;29;1276;-80
2022/05/25 00:27:42;;;;;;;4.03;2.20;;;;;;;13.37;57.36;100618.34;687891;28;1296;-80
2022/05/25 00:28:07;;;;;;;3.90;2.20;;;;;;;13.40;57.17;100637.63;687689;28;1228;-81
2022/05/25 00:28:27;;;;;;;3.20;2.15;;;;;;;13.37;57.13;100629.72;687959;28;1115;-80
2022/05/25 00:28:48;;;;;;;2.80;2.30;;;;;;;13.32;57.47;100623.53;685697;28;1191;-81
2022/05/25 00:29:09;;;;;;;3.05;2.40;;;;;;;13.37;57.17;100637.59;685142;28;1112;-80
2022/05/25 00:29:29;;;;;;;2.67;2.42;;;;;;;13.34;57.44;100637.53;690166;28;1200;-80
2022/05/25 00:29:50;;;;;;;2.60;2.20;;;;;;;13.35;57.42;100636.69;687742;28;1292;-80
2022/05/25 00:30:12;;;;;;;2.40;2.15;;;;;;;13.24;57.25;100628.69;685475;28;1147;-80
2022/05/25 00:30:34;;;;;;;2.70;2.20;;;;;;;13.37;57.83;100641.94;693248;28;905;-80
2022/05/25 00:30:54;;;;;;;2.72;2.30;;;;;;;13.27;57.26;100633.09;685212;28;1153;-81
2022/05/25 00:31:15;;;;;;;2.58;2.38;;;;;;;13.25;57.90;100629.53;690599;28;1253;-80
2022/05/25 00:31:36;;;;;;;2.40;2.20;;;;;;;13.29;57.85;100640.09;685216;28;1209;-80
2022/05/25 00:31:56;;;;;;;2.30;2.10;;;;;;;13.22;57.57;100632.13;692241;28;1280;-80
2022/05/25 00:32:17;;;;;;;2.30;2.10;;;;;;;13.26;57.75;100634.81;687886;28;1229;-80
2022/05/25 00:32:38;;;;;;;2.80;2.38;;;;;;;13.24;57.58;100630.41;685215;28;1301;-80
2022/05/25 00:33:00;;;;;;;2.67;2.40;;;;;;;13.24;57.82;100627.78;690524;28;1207;-80
2022/05/25 00:33:21;;;;;;;4.88;2.58;;;;;;;13.26;58.13;100631.31;682733;28;1012;-80
2022/05/25 00:33:42;;;;;;;4.57;2.40;;;;;;;13.30;57.90;100643.59;682795;28;1266;-81
2022/05/25 00:34:02;;;;;;;4.68;2.53;;;;;;;13.21;57.95;100626.00;685123;28;992;-80
2022/05/25 00:34:23;;;;;;;2.63;2.43;;;;;;;13.20;57.89;100620.75;685214;28;1150;-80
2022/05/25 00:34:44;;;;;;;2.73;2.53;;;;;;;13.22;58.05;100629.50;685208;28;1072;-80
2022/05/25 00:35:06;;;;;;;3.10;2.80;;;;;;;13.25;58.12;100632.16;690436;28;1260;-80
2022/05/25 00:35:29;;;;;;;3.10;2.60;;;;;;;13.21;57.93;100627.75;687796;28;1254;-80
2022/05/25 00:35:50;;;;;;;3.67;2.50;;;;;;;13.25;58.00;100632.16;682503;29;1442;-80
2022/05/25 00:36:11;;;;;;;2.95;2.38;;;;;;;13.21;58.05;100630.38;685163;28;1108;-80
2022/05/25 00:36:31;;;;;;;2.95;2.50;;;;;;;13.22;58.52;100637.38;690124;28;1329;-80
2022/05/25 00:36:52;;;;;;;2.50;2.30;;;;;;;13.23;58.41;100644.38;687687;28;1339;-80
2022/05/25 00:37:12;;;;;;;2.30;2.10;;;;;;;13.25;58.41;100640.03;687752;28;1146;-80
2022/05/25 00:37:34;;;;;;;2.33;2.13;;;;;;;13.19;58.40;100635.59;685198;28;1193;-80
2022/05/25 00:37:55;;;;;;;2.40;2.20;;;;;;;13.16;58.63;100636.41;692169;28;1462;-80
2022/05/25 00:38:16;;;;;;;2.40;2.20;;;;;;;13.19;58.61;100634.69;690432;28;1538;-81
2022/05/25 00:38:54;;;;;;;2.20;2.10;;;;;;;13.08;58.67;100627.56;687952;28;1062;-80
2022/05/25 00:39:15;;;;;;;2.30;2.10;;;;;;;13.14;58.71;100635.50;679641;29;1444;-80
2022/05/25 00:39:38;;;;;;;2.70;2.40;;;;;;;13.21;58.73;100646.09;687470;28;1098;-81
2022/05/25 00:39:58;;;;;;;2.85;2.30;;;;;;;13.11;58.49;100630.25;689737;28;1223;-80
2022/05/25 00:40:24;;;;;;;2.50;2.30;;;;;;;13.19;58.98;100648.69;684952;28;1928;-80
2022/05/25 00:40:45;;;;;;;2.20;2.00;;;;;;;13.15;58.84;100639.88;687937;28;838;-80
2022/05/25 00:41:06;;;;;;;2.13;1.92;;;;;;;13.05;58.78;100630.13;685126;28;1095;-80
2022/05/25 00:41:28;;;;;;;2.30;2.00;;;;;;;13.03;58.86;100629.22;685174;28;1241;-80
2022/05/25 00:41:50;;;;;;;2.65;2.20;;;;;;;13.04;58.75;100633.63;690453;28;1350;-80
2022/05/25 00:42:10;;;;;;;2.50;2.30;;;;;;;13.08;58.70;100643.28;687659;28;1114;-80
2022/05/25 00:42:31;;;;;;;3.00;2.50;;;;;;;13.01;58.84;100630.94;687844;28;1247;-80
2022/05/25 00:42:52;;;;;;;3.10;2.40;;;;;;;13.01;58.90;100633.56;682526;28;1179;-80
2022/05/25 00:43:13;;;;;;;3.20;2.30;;;;;;;13.05;58.89;100643.25;687918;28;971;-80
2022/05/25 00:43:34;;;;;;;2.92;2.30;;;;;;;13.05;58.80;100643.25;685138;28;1276;-80
2022/05/25 00:43:55;;;;;;;2.58;2.33;;;;;;;13.05;59.08;100642.34;687872;28;1047;-80
2022/05/25 00:44:17;;;;;;;2.65;2.45;;;;;;;13.04;58.99;100641.47;682319;28;1266;-80
2022/05/25 00:44:38;;;;;;;2.50;2.30;;;;;;;12.99;58.81;100643.13;685281;28;799;-80
2022/05/25 00:44:58;;;;;;;2.50;2.30;;;;;;;12.95;58.96;100630.81;684960;28;1175;-80
2022/05/25 00:45:20;;;;;;;3.58;2.28;;;;;;;13.04;58.90;100651.97;685117;28;1254;-80
2022/05/25 00:45:46;;;;;;;3.95;2.30;;;;;;;12.98;59.19;100646.63;687739;28;1101;-80
2022/05/25 00:46:13;;;;;;;3.97;2.28;;;;;;;12.98;59.03;100650.09;685010;28;1302;-81
2022/05/25 00:46:35;;;;;;;4.05;2.22;;;;;;;12.91;58.75;100636.84;690427;28;833;-80
2022/05/25 00:46:56;;;;;;;5.32;2.40;;;;;;;12.91;59.13;100645.59;684957;28;1056;-81
2022/05/25 00:47:23;;;;;;;8.30;2.20;;;;;;;12.87;59.22;100633.31;685153;28;1064;-80
2022/05/25 00:47:47;;;;;;;7.20;2.60;;;;;;;12.91;59.25;100644.72;687716;28;1263;-80
2022/05/25 00:48:15;;;;;;;6.55;2.60;;;;;;;12.81;59.22;100627.97;684964;28;1363;-80
2022/05/25 00:48:43;;;;;;;4.20;2.20;;;;;;;12.91;59.13;100649.94;682520;28;1361;-80
2022/05/25 00:49:06;;;;;;;3.03;2.33;;;;;;;12.91;59.27;100650.81;685086;28;1101;-80
2022/05/25 00:49:29;;;;;;;3.10;2.47;;;;;;;12.79;59.52;100638.41;682298;29;1220;-80
2022/05/25 00:49:51;;;;;;;3.15;2.50;;;;;;;12.88;59.15;100651.69;685031;28;815;-81
2022/05/25 00:50:15;;;;;;;3.22;2.40;;;;;;;12.81;59.20;100639.34;685109;28;1129;-80
2022/05/25 00:51:29;;;;;;;3.80;2.70;;;;;;;12.82;59.55;100635.84;685217;28;1013;-80
2022/05/25 00:51:57;;;;;;;3.50;2.60;;;;;;;12.81;59.48;100634.09;685038;28;880;-80
2022/05/25 00:52:18;;;;;;;2.95;2.40;;;;;;;12.90;59.25;100649.06;679953;29;973;-80
2022/05/25 00:52:41;;;;;;;2.60;2.40;;;;;;;12.86;59.24;100645.50;679480;29;1147;-81
2022/05/25 00:53:02;;;;;;;2.60;2.40;;;;;;;12.91;59.32;100647.34;685102;28;1193;-81
2022/05/25 00:53:22;;;;;;;2.70;2.50;;;;;;;12.84;59.30;100634.13;685114;28;1157;-80
2022/05/25 00:53:47;;;;;;;2.70;2.50;;;;;;;12.83;59.46;100631.47;682492;29;1150;-80
2022/05/25 00:54:15;;;;;;;2.60;2.40;;;;;;;12.87;59.46;100643.78;685030;28;1225;-80
2022/05/25 00:54:49;;;;;;;2.80;2.50;;;;;;;12.91;59.09;100644.72;685238;28;781;-80
2022/05/25 00:55:13;;;;;;;4.90;2.70;;;;;;;12.80;59.28;100645.44;685175;28;1029;-80
2022/05/25 00:55:34;;;;;;;4.85;2.60;;;;;;;12.84;59.40;100644.59;689202;28;776;-80
2022/05/25 00:56:20;;;;;;;4.40;2.50;;;;;;;12.88;59.50;100645.53;686894;28;1112;-80
2022/05/25 00:56:45;;;;;;;2.47;2.28;;;;;;;12.83;59.30;100645.47;679837;29;1146;-80
2022/05/25 00:57:20;;;;;;;3.70;2.42;;;;;;;12.82;59.22;100643.72;679715;29;1465;-80
2022/05/25 00:57:43;;;;;;;4.65;2.60;;;;;;;12.75;59.33;100631.38;690500;28;2003;-80
2022/05/25 00:58:06;;;;;;;3.90;2.60;;;;;;;12.86;59.48;100653.38;682386;28;1398;-80
2022/05/25 00:58:26;;;;;;;3.60;2.70;;;;;;;12.79;59.36;100642.78;682462;29;1146;-80
2022/05/25 00:58:52;;;;;;;4.30;2.70;;;;;;;12.74;59.82;100637.47;680277;29;1212;-80
2022/05/25 00:59:17;;;;;;;3.60;2.60;;;;;;;12.80;59.48;100652.38;682434;29;1339;-80
2022/05/25 01:00:08;;;;;;;3.08;2.65;;;;;;;12.74;59.52;100650.56;684525;28;842;-80
2022/05/25 01:00:30;;;;;;;4.82;2.80;;;;;;;12.76;59.37;100648.84;679967;28;1906;-81
2022/05/25 01:01:06;;;;;;;3.47;2.50;;;;;;;12.65;59.67;100643.41;688120;28;1278;-80
2022/05/25 01:01:27;;;;;;;3.13;2.30;;;;;;;12.77;59.60;100663.69;687328;28;1533;-80
2022/05/25 01:01:48;;;;;;;4.32;2.10;;;;;;;12.70;59.67;100651.34;688028;28;1352;-80
2022/05/25 01:02:09;;;;;;;4.30;2.10;;;;;;;12.71;59.51;100661.84;687393;28;1184;-80
2022/05/25 01:02:34;;;;;;;3.00;2.40;;;;;;;12.64;59.56;100638.19;687867;28;1240;-81
2022/05/25 01:03:01;;;;;;;2.92;2.60;;;;;;;12.64;59.69;100646.03;690238;28;1307;-80
2022/05/25 01:03:21;;;;;;;2.70;2.50;;;;;;;12.67;59.66;100654.78;690442;28;1243;-81
2022/05/25 01:03:42;;;;;;;3.00;2.50;;;;;;;12.67;59.88;100651.31;690570;28;868;-80
2022/05/25 01:04:03;;;;;;;4.40;2.70;;;;;;;12.68;59.74;100653.97;682388;29;1296;-80
2022/05/25 01:04:25;;;;;;;8.07;2.70;;;;;;;12.73;59.69;100654.03;686708;28;1055;-80
2022/05/25 01:04:47;;;;;;;8.30;2.75;;;;;;;12.74;59.73;100661.03;687810;28;1438;-80
2022/05/25 01:05:09;;;;;;;6.90;2.63;;;;;;;12.68;59.69;100646.09;682270;29;1315;-81
2022/05/25 01:05:39;;;;;;;3.30;2.50;;;;;;;12.69;59.87;100652.19;687871;28;1487;-80
2022/05/25 01:06:18;;;;;;;3.20;2.33;;;;;;;12.73;59.69;100660.13;687772;28;920;-81
2022/05/25 01:07:01;;;;;;;2.60;2.40;;;;;;;12.70;60.03;100653.97;685218;28;1224;-80
2022/05/25 01:07:40;;;;;;;3.20;2.30;;;;;;;12.73;59.96;100667.13;682445;28;1066;-80
2022/05/25 01:08:00;;;;;;;3.17;2.47;;;;;;;12.68;59.87;100648.72;682560;28;1032;-80
2022/05/25 01:08:36;;;;;;;2.63;2.43;;;;;;;12.70;60.04;100657.47;687858;28;1069;-80
2022/05/25 01:09:18;;;;;;;2.78;2.30;;;;;;;12.65;59.94;100650.41;687691;28;1150;-80
2022/05/25 01:09:50;;;;;;;9.70;2.58;;;;;;;12.69;59.87;100660.06;684438;28;1115;-80
2022/05/25 01:10:32;;;;;;;9.68;2.83;;;;;;;12.71;60.08;100663.56;682300;29;1452;-80
2022/05/25 01:11:20;;;;;;;3.30;2.50;;;;;;;12.70;59.87;100661.81;690310;28;2013;-81
2022/05/25 01:11:53;;;;;;;3.78;2.70;;;;;;;12.66;59.82;100665.25;690526;28;846;-80
2022/05/25 01:12:36;;;;;;;4.30;2.80;;;;;;;12.65;60.06;100664.34;690308;28;1270;-80
2022/05/25 01:12:57;;;;;;;4.47;2.90;;;;;;;12.64;60.14;100664.34;687820;28;980;-80
2022/05/25 01:13:24;;;;;;;4.20;2.90;;;;;;;12.53;60.01;100648.44;690560;28;1037;-80
2022/05/25 01:13:50;;;;;;;3.25;2.45;;;;;;;12.49;60.25;100647.50;687835;28;874;-80
2022/05/25 01:14:29;;;;;;;3.35;2.50;;;;;;;12.60;60.19;100666.91;690421;28;947;-80
2022/05/25 01:16:28;;;;;;;2.95;2.60;;;;;;;12.21;61.40;100667.91;692130;28;1203;-79
2022/05/25 01:17:18;;;;;;;3.20;2.50;;;;;;;12.19;61.67;100667.00;695311;28;886;-80
2022/05/25 01:17:54;;;;;;;3.30;2.50;;;;;;;12.16;61.74;100672.19;687477;28;1324;-80
2022/05/25 01:18:33;;;;;;;6.10;2.90;;;;;;;12.13;61.82;100665.16;682415;29;981;-80
2022/05/25 01:19:11;;;;;;;5.43;2.58;;;;;;;12.03;61.75;100650.13;690414;28;1308;-80
2022/05/25 01:19:43;;;;;;;2.70;2.40;;;;;;;12.09;61.93;100673.78;684797;28;1630;-80
2022/05/25 01:20:22;;;;;;;3.50;2.53;;;;;;;12.06;62.24;100666.75;681787;29;1522;-80
2022/05/25 01:20:48;;;;;;;4.05;2.67;;;;;;;12.05;62.32;100667.59;682340;29;903;-81
2022/05/25 01:21:23;;;;;;;3.92;2.72;;;;;;;12.04;62.42;100670.22;682332;29;1583;-81
2022/05/25 01:22:22;;;;;;;2.90;2.65;;;;;;;11.94;62.10;100663.91;684605;28;1190;-80
2022/05/25 01:23:08;;;;;;;4.78;2.50;;;;;;;11.93;62.27;100667.38;690083;28;799;-80
2022/05/25 01:23:51;;;;;;;3.10;2.60;;;;;;;11.98;62.44;100673.56;687223;28;1298;-81
2022/05/25 01:24:38;;;;;;;6.35;3.05;;;;;;;11.96;62.39;100672.66;685063;28;917;-80
2022/05/25 01:24:59;;;;;;;3.03;2.65;;;;;;;11.96;62.35;100677.88;685193;28;1075;-80
2022/05/25 01:26:55;;;;;;;6.65;2.97;;;;;;;11.94;62.50;100674.34;688651;28;1265;-80
2022/05/25 01:27:49;;;;;;;4.47;2.88;;;;;;;11.84;62.48;100660.22;688852;28;1256;-80
2022/05/25 01:28:36;;;;;;;4.57;2.70;;;;;;;11.91;62.38;100671.66;687348;28;1480;-80
2022/05/25 01:29:05;;;;;;;3.72;2.78;;;;;;;11.88;62.28;100679.47;684628;28;1245;-80
2022/05/25 01:29:50;;;;;;;3.00;2.42;;;;;;;11.81;62.54;100672.31;682424;28;1348;-80
2022/05/25 01:30:19;;;;;;;2.60;2.35;;;;;;;11.81;62.79;100683.69;690766;28;1032;-80
2022/05/25 01:30:45;;;;;;;3.20;2.55;;;;;;;11.78;62.69;100673.13;685136;28;1394;-80
2022/05/25 01:31:14;;;;;;;3.45;2.70;;;;;;;11.79;62.94;100681.03;690449;28;996;-80
2022/05/25 01:31:40;;;;;;;2.97;2.70;;;;;;;11.69;62.73;100663.38;685156;28;851;-80
2022/05/25 01:32:13;;;;;;;4.55;2.70;;;;;;;11.70;62.99;100679.94;685315;28;1236;-80
2022/05/25 01:32:40;;;;;;;6.13;3.00;;;;;;;11.73;63.01;100686.13;687727;28;1363;-80
2022/05/25 01:33:01;;;;;;;4.95;3.10;;;;;;;11.75;62.97;100684.41;684952;28;1211;-80
2022/05/25 01:33:52;;;;;;;3.93;2.60;;;;;;;11.63;62.97;100668.44;679656;29;1152;-80
2022/05/25 01:34:44;;;;;;;3.47;2.83;;;;;;;11.72;63.20;100686.06;687345;28;1202;-80
2022/05/25 01:35:18;;;;;;;3.35;2.70;;;;;;;11.70;62.96;100686.06;683306;28;1222;-80
2022/05/25 01:35:59;;;;;;;3.15;2.72;;;;;;;11.70;63.21;100679.94;685021;28;1991;-80
2022/05/25 01:36:25;;;;;;;3.88;2.72;;;;;;;11.71;63.04;100695.66;682238;29;1307;-80
2022/05/25 01:37:01;;;;;;;4.60;2.70;;;;;;;11.65;63.22;100692.91;681994;29;2012;-80
2022/05/25 01:37:46;;;;;;;3.25;2.55;;;;;;;11.60;63.13;100678.81;685082;28;945;-80
2022/05/25 01:38:13;;;;;;;3.17;2.70;;;;;;;11.57;63.11;100670.91;684877;28;1124;-81
2022/05/25 01:38:45;;;;;;;4.38;2.90;;;;;;;11.63;63.26;100685.00;682397;28;1384;-80
2022/05/25 01:39:13;;;;;;;4.18;2.80;;;;;;;11.66;63.38;100694.66;687575;28;1100;-80
2022/05/25 01:39:39;;;;;;;3.03;2.70;;;;;;;11.61;63.00;100680.59;687342;28;1229;-80
2022/05/25 01:40:36;;;;;;;5.72;3.10;;;;;;;11.63;63.30;100689.34;687715;28;1044;-80
2022/05/25 01:41:06;;;;;;;4.40;2.85;;;;;;;11.61;63.61;100691.06;682294;29;1219;-80
2022/05/25 01:42:01;;;;;;;4.00;2.83;;;;;;;11.49;63.60;100679.47;685257;28;2011;-80
2022/05/25 01:42:29;;;;;;;3.35;2.83;;;;;;;11.47;63.68;100668.09;690486;28;1375;-80
2022/05/25 01:42:59;;;;;;;3.30;2.85;;;;;;;11.55;63.84;100683.06;679885;28;1273;-80
2022/05/25 01:43:29;;;;;;;4.45;2.67;;;;;;;11.46;63.61;100675.91;685087;28;1080;-80
2022/05/25 01:44:06;;;;;;;5.07;2.60;;;;;;;11.58;63.82;100690.97;682352;28;1322;-80
2022/05/25 01:44:36;;;;;;;5.10;3.00;;;;;;;11.57;63.88;100690.09;684631;28;1208;-79
2022/05/25 01:45:02;;;;;;;5.15;2.80;;;;;;;11.48;63.88;100675.09;692648;28;1120;-80
2022/05/25 01:45:29;;;;;;;4.03;2.85;;;;;;;11.58;63.80;100689.25;687612;28;1135;-80
2022/05/25 01:46:03;;;;;;;4.20;3.10;;;;;;;11.49;63.72;100683.81;685324;28;1383;-80
2022/05/25 01:47:03;;;;;;;3.33;2.70;;;;;;;11.50;63.93;100683.84;682399;28;1341;-80
2022/05/25 01:47:27;;;;;;;3.60;2.70;;;;;;;11.46;63.79;100676.78;682214;29;1392;-80
2022/05/25 01:47:50;;;;;;;4.50;2.80;;;;;;;11.49;63.85;100684.69;682398;28;810;-80
2022/05/25 01:48:39;;;;;;;5.18;2.97;;;;;;;11.56;63.93;100697.91;684470;28;1152;-80
2022/05/25 01:49:05;;;;;;;4.00;2.72;;;;;;;11.46;64.15;100681.13;684528;28;1140;-80
2022/05/25 01:49:42;;;;;;;4.53;2.80;;;;;;;11.46;64.11;100687.25;682078;29;1172;-80
2022/05/25 01:50:14;;;;;;;4.53;2.95;;;;;;;11.46;64.10;100686.34;683586;28;1249;-80
2022/05/25 01:50:44;;;;;;;4.70;2.78;;;;;;;11.48;64.42;100690.75;682344;28;1141;-80
2022/05/25 01:51:12;;;;;;;3.70;2.67;;;;;;;11.40;64.43;100681.88;685025;28;1111;-80
2022/05/25 01:51:39;;;;;;;4.32;2.90;;;;;;;11.48;64.64;100701.22;682456;29;804;-80
2022/05/25 01:52:05;;;;;;;4.88;2.90;;;;;;;11.39;64.41;100680.09;684779;28;1129;-80
2022/05/25 01:52:34;;;;;;;4.43;2.90;;;;;;;11.34;64.42;100677.38;690067;28;1215;-80
2022/05/25 01:52:58;;;;;;;4.20;2.90;;;;;;;11.35;64.30;100679.16;690230;28;1114;-81
2022/05/25 01:53:24;;;;;;;3.83;2.90;;;;;;;11.38;64.49;100684.44;682366;28;1215;-81
2022/05/25 01:53:48;;;;;;;3.33;2.90;;;;;;;11.35;64.36;100688.69;682402;28;1367;-80
2022/05/25 01:54:13;;;;;;;3.85;2.85;;;;;;;11.32;64.36;100679.06;687527;28;1264;-81
2022/05/25 01:54:38;;;;;;;3.25;2.60;;;;;;;11.41;64.39;100696.69;690545;28;783;-80
2022/05/25 01:55:04;;;;;;;3.28;2.55;;;;;;;11.32;64.35;100686.03;685049;28;1087;-80
2022/05/25 01:55:34;;;;;;;4.60;2.40;;;;;;;11.29;64.53;100689.44;684554;28;1251;-80
2022/05/25 01:55:59;;;;;;;4.88;2.70;;;;;;;11.26;64.58;100685.88;693047;28;1255;-80
2022/05/25 01:56:23;;;;;;;4.43;2.90;;;;;;;11.34;64.32;100702.63;687696;28;1306;-81
2022/05/25 01:56:47;;;;;;;4.60;3.05;;;;;;;11.26;64.59;100685.88;685093;28;1273;-80
2022/05/25 01:57:13;;;;;;;3.13;2.50;;;;;;;11.31;64.38;100697.34;687530;28;1150;-80
2022/05/25 01:57:38;;;;;;;4.07;2.50;;;;;;;11.29;64.77;100697.28;682214;29;1359;-80
2022/05/25 01:58:04;;;;;;;3.60;2.60;;;;;;;11.32;64.69;100709.53;684911;28;1337;-80
2022/05/25 01:58:27;;;;;;;4.30;2.90;;;;;;;11.21;64.79;100685.78;690074;28;1339;-80
2022/05/25 01:58:54;;;;;;;3.25;2.88;;;;;;;11.31;64.60;100707.78;687751;28;1243;-80
2022/05/25 01:59:17;;;;;;;2.97;2.70;;;;;;;11.27;64.52;100701.59;690371;28;1136;-80
2022/05/25 01:59:38;;;;;;;2.72;2.53;;;;;;;11.24;64.55;100697.19;684349;28;1414;-80
2022/05/25 01:59:58;;;;;;;3.20;2.90;;;;;;;11.17;64.84;100684.81;684990;28;1181;-80
2022/05/25 02:00:49;;;;;;;3.50;3.00;;;;;;;11.29;64.81;100712.97;682232;28;1340;-80
2022/05/25 02:01:14;;;;;;;6.10;2.78;;;;;;;11.30;64.89;100708.63;676813;29;1221;-80
2022/05/25 02:01:36;;;;;;;5.88;2.95;;;;;;;11.17;64.80;100684.81;679803;29;765;-80
2022/05/25 02:04:41;;;;;;;3.10;2.80;;;;;;;11.20;64.84;100695.31;692000;28;1463;-81
2022/05/25 02:05:08;;;;;;;2.90;2.67;;;;;;;11.15;64.75;100696.06;691088;28;1383;-81
2022/05/25 02:05:29;;;;;;;3.20;2.60;;;;;;;11.22;64.88;100701.50;690890;28;1360;-81
2022/05/25 02:05:52;;;;;;;3.43;2.63;;;;;;;11.22;64.86;100704.09;685489;28;785;-80
2022/05/25 02:06:39;;;;;;;3.00;2.50;;;;;;;11.21;64.99;100702.34;685313;28;1392;-80
2022/05/25 02:07:18;;;;;;;3.17;2.67;;;;;;;11.20;64.88;100711.00;682209;28;2104;-80
2022/05/25 02:08:18;;;;;;;3.05;2.60;;;;;;;11.11;64.72;100695.09;682492;29;847;-80
2022/05/25 02:08:57;;;;;;;4.45;2.50;;;;;;;11.17;65.15;100700.50;685261;28;1254;-80
2022/05/25 02:09:42;;;;;;;4.40;2.60;;;;;;;11.15;65.11;100701.28;687625;28;1087;-81
2022/05/25 02:10:08;;;;;;;3.65;2.65;;;;;;;11.15;65.30;100707.41;687498;28;1430;-80
2022/05/25 02:10:47;;;;;;;3.17;2.60;;;;;;;11.15;65.25;100701.28;685577;28;1249;-81
2022/05/25 02:11:15;;;;;;;4.88;2.50;;;;;;;11.13;65.22;100709.13;684984;28;1219;-80
2022/05/25 02:12:18;;;;;;;5.18;2.60;;;;;;;11.12;65.11;100707.31;687679;28;1074;-80
2022/05/25 02:12:51;;;;;;;4.15;2.53;;;;;;;11.09;65.39;100707.25;683940;28;1381;-80
2022/05/25 02:13:19;;;;;;;3.40;2.63;;;;;;;10.97;65.34;100689.56;684893;28;1561;-80
2022/05/25 02:14:05;;;;;;;3.55;2.83;;;;;;;11.05;65.19;100701.06;685070;28;823;-80
2022/05/25 02:14:32;;;;;;;3.60;2.70;;;;;;;11.04;65.25;100708.84;685081;28;1205;-80
2022/05/25 02:14:58;;;;;;;3.47;2.50;;;;;;;11.05;65.44;100706.28;693065;28;1236;-80
2022/05/25 02:15:40;;;;;;;2.90;2.53;;;;;;;11.02;65.06;100707.94;690337;28;1111;-80
2022/05/25 02:16:36;;;;;;;3.33;2.70;;;;;;;10.96;65.35;100690.41;693081;28;985;-80
2022/05/25 02:17:02;;;;;;;3.25;2.83;;;;;;;11.04;65.25;100703.63;687146;28;1647;-80
2022/05/25 02:17:46;;;;;;;3.22;2.70;;;;;;;11.04;65.38;100698.41;690391;28;1047;-80
2022/05/25 02:18:09;;;;;;;3.58;2.50;;;;;;;11.03;65.25;100704.47;690323;28;1236;-79